Aeroporto :
LOGIN :

Iscrizione | Disclaimer

   EN    FR    IT 

 










Sommario :    VFR   VFR Marginale   IFR   IFR Intensivo   IFR Molto Intensivo
Visibilità : 
Base nubi : 
>= 8 km
>= 3000ft
5 / 8 km
1000 / 3000 ft
1500m / 5 km
500 / 1000 ft
800 / 1500m
200 / 500 ft
< 800m
< 200 ft
Simboli :   Temporali  Nebbia  Neve Forte  Precipitazioni Forti  Vento > 20 kt
SIGMETs :   Varie  Temporali  Ghiacco  Turbolenza  Onda orograficha  Ceneri Vulcaniche






- Altitudine del aeroporto : 233 ft
- Codice IATA : REU


LERS - Reus Tarragona

ULTIMO METAR :
  • 111930Z 27004KT 220V310 9999 FEW030 12/05 Q1010

METARs OBSOLETI :
  • 111900Z 32005KT 250V030 9999 FEW030 13/06 Q1010
  • 111830Z 29005KT 240V350 9999 FEW030 14/06 Q1010
  • 111800Z 28011KT 250V330 9999 FEW030 14/06 Q1010
  • 111730Z 26004KT 200V330 9999 FEW030 14/06 Q1010
  • 111700Z 26006KT 230V310 9999 FEW035 13/05 Q1010

TAF TAF LERS
Valido dal 11 a 15 ore il 12 a 15 ore UTC


111400Z 1115/1215 28009KT 9999 FEW030 TX17/1213Z TN07/1206Z
PROB30
TEMPO 1119/1123 30015G25KT



MetMap, La meteo Aeronautica in un colpo d'occhio ! - Copyright ORBIFLY Dicembre 2007 - Disclaimer

ORBIFLY MET'MAP TEAM :

Programmazione e sviluppo : Alexandra Zaïnal
Concezione e sviluppo : Baudouin d'Aumeries
Co-Programmazione e sviluppo : Marc-Olivier Méhu
Supporto tecnico e logistico : Manuel Goepfert
Aiuto per la traduzione : Arnaldo La Scala

Contatto : metmap@orbifly.com




FONTI E CREDITI :

   NOAA